Flight Track Log - Related Links

Times and Time Zones

All times are in EDT time to prevent confusion due to time zone crossing. See the DAL18 flight status page for this flight to view local times or setup timezone preferences in your user account.

Time Position Orientation Groundspeed Altitude Reporting Facility
EDT Latitude Longitude Course Direction KTS MPH feet Rate Location/Type
Fri 10:41:59 PM 42.1967 -83.3917 183° South 179 206 1,300  Level Cleveland Center
Fri 10:42:48 PM 42.1528 -83.3953 178° South 217 250 2,700 1,806 Climbing Cleveland Center
Fri 10:43:42 PM 42.0903 -83.3925 165° South 265 305 4,400 2,380 Climbing Cleveland Center
Fri 10:44:49 PM 42.0097 -83.3639 83° East 283 326 7,500 2,571 Climbing Cleveland Center
Fri 10:45:48 PM 42.0183 -83.2664 60° Northeast 277 319 9,800 1,815 Climbing Cleveland Center
Fri 10:46:48 PM 42.0622 -83.1647 59° Northeast 271 312 11,100 1,300 Climbing Cleveland Center
Fri 10:47:48 PM 42.1150 -83.0464 60° Northeast 334 384 12,400 2,050 Climbing Cleveland Center
Fri 10:48:48 PM 42.1739 -82.9086 62° Northeast 397 457 15,200 2,350 Climbing Cleveland Center
Fri 10:49:48 PM 42.2289 -82.7675 87° East 418 481 17,100 1,600 Climbing Cleveland Center
Fri 10:50:48 PM 42.2361 -82.5939 89° East 436 502 18,400 1,700 Climbing Cleveland Center
Fri 10:51:48 PM 42.2372 -82.4089 90° East 468 539 20,500 2,000 Climbing Cleveland Center
Fri 10:52:48 PM 42.2358 -82.2181 90° East 494 568 22,400 1,600 Climbing Cleveland Center
Fri 10:53:48 PM 42.2361 -82.0500 90° East 504 580 23,700 1,400 Climbing Cleveland Center
Fri 10:54:48 PM 42.2364 -81.8536 91° East 509 586 25,200 1,650 Climbing Cleveland Center
Fri 10:55:48 PM 42.2344 -81.6489 91° East 533 613 27,000 1,750 Climbing Cleveland Center
Fri 10:56:48 PM 42.2319 -81.4300 90° East 533 613 28,700 1,500 Climbing Cleveland Center
Fri 10:57:48 PM 42.2311 -81.2308 91° East 533 613 30,000 1,150 Climbing Cleveland Center
Fri 10:58:48 PM 42.2281 -81.0261 75° East 533 613 31,000 500 Climbing Cleveland Center
Fri 10:59:48 PM 42.2639 -80.8414 75° East 521 600 31,000  Level Cleveland Center
Fri 11:00:48 PM 42.2997 -80.6561 73° East 516 594 31,000  Level Cleveland Center
Fri 11:01:48 PM 42.3414 -80.4736 75° East 508 585 31,000  Level Cleveland Center
Fri 11:02:48 PM 42.3786 -80.2881 74° East 508 585 31,000  Level Cleveland Center
Fri 11:03:48 PM 42.4133 -80.1219 73° East 508 585 31,000  Level Cleveland Center
Fri 11:04:48 PM 42.4583 -79.9161 74° East 513 590 31,000  Level Cleveland Center
Fri 11:05:48 PM 42.4967 -79.7300 74° East 513 590 31,000  Level Cleveland Center
Fri 11:06:48 PM 42.5369 -79.5433 75° East 513 590 31,000  Level Cleveland Center
Fri 11:07:48 PM 42.5744 -79.3511 74° East 513 590 31,000  Level Cleveland Center
Fri 11:08:48 PM 42.6142 -79.1642 75° East 513 590 31,000  Level Cleveland Center
Fri 11:09:48 PM 42.6472 -78.9939 75° East 513 590 31,000  Level Cleveland Center
Fri 11:10:48 PM 42.6842 -78.8011 75° East 518 596 31,000  Level Cleveland Center
Fri 11:11:48 PM 42.7225 -78.6078 75° East 518 596 31,000  Level Cleveland Center
Fri 11:12:48 PM 42.7589 -78.4169 76° East 518 596 31,000  Level Cleveland Center
Fri 11:13:48 PM 42.7947 -78.2233 76° East 518 596 31,000  Level Cleveland Center
Fri 11:14:48 PM 42.8339 -78.0094 75° East 518 596 31,000  Level Cleveland Center
Fri 11:15:48 PM 42.8731 -77.8153 76° East 518 596 31,000  Level Cleveland Center
Fri 11:16:48 PM 42.9081 -77.6239 76° East 523 602 31,000  Level Cleveland Center
Fri 11:18:26 PM 42.9603 -77.3294 75° East 505 581 31,000  Level Boston Center
Fri 11:19:26 PM 42.9975 -77.1392 76° East 511 588 31,000  Level Boston Center
Fri 11:20:26 PM 43.0325 -76.9458 76° East 517 595 31,000  Level Boston Center
Fri 11:21:26 PM 43.0669 -76.7522 77° East 523 602 31,000  Level Boston Center
Fri 11:22:26 PM 43.0992 -76.5608 76° East 528 608 31,000  Level Boston Center
Fri 11:23:26 PM 43.1331 -76.3669 74° East 528 608 31,000  Level Boston Center
Fri 11:24:26 PM 43.1728 -76.1786 62° Northeast 523 602 31,000  Level Boston Center
Fri 11:25:26 PM 43.2364 -76.0114 61° Northeast 505 581 31,000  Level Boston Center
Fri 11:26:26 PM 43.3019 -75.8497 61° Northeast 492 566 31,000  Level Boston Center
Fri 11:27:26 PM 43.3672 -75.6847 60° Northeast 487 560 31,000  Level Boston Center
Fri 11:28:26 PM 43.4342 -75.5225 62° Northeast 481 554 31,000  Level Boston Center
Fri 11:29:26 PM 43.4969 -75.3567 62° Northeast 487 560 31,000  Level Boston Center
Fri 11:30:26 PM 43.5617 -75.1881 63° Northeast 487 560 31,000  Level Boston Center
Fri 11:31:26 PM 43.6239 -75.0217 61° Northeast 487 560 31,000  Level Boston Center
Fri 11:32:26 PM 43.6900 -74.8550 62° Northeast 487 560 31,000  Level Boston Center
Fri 11:33:26 PM 43.7539 -74.6850 63° Northeast 487 560 31,000  Level Boston Center
Fri 11:34:26 PM 43.8153 -74.5175 62° Northeast 487 560 31,000  Level Boston Center
Fri 11:35:26 PM 43.8786 -74.3525 62° Northeast 487 560 31,000  Level Boston Center
Fri 11:36:26 PM 43.9417 -74.1844 64° Northeast 487 560 31,000  Level Boston Center
Fri 11:37:26 PM 44.0069 -74.0017 63° Northeast 482 555 31,000  Level Boston Center
Fri 11:38:26 PM 44.0675 -73.8356 63° Northeast 487 560 31,000  Level Boston Center
Fri 11:39:26 PM 44.1297 -73.6664 63° Northeast 487 560 31,000  Level Boston Center
Fri 11:40:26 PM 44.1897 -73.4997 63° Northeast 487 560 31,000  Level Boston Center
Fri 11:41:26 PM 44.2494 -73.3356 64° Northeast 482 555 31,000  Level Boston Center
Fri 11:42:26 PM 44.3092 -73.1653 62° Northeast 482 555 31,000  Level Boston Center
Fri 11:43:26 PM 44.3661 -73.0122 64° Northeast 482 555 31,000  Level Boston Center
Fri 11:44:26 PM 44.4253 -72.8411 64° Northeast 487 560 31,000  Level Boston Center
Fri 11:45:26 PM 44.4839 -72.6728 63° Northeast 482 555 31,000  Level Boston Center
Fri 11:46:26 PM 44.5531 -72.4839 64° Northeast 489 563 31,000  Level Boston Center
Fri 11:47:26 PM 44.6114 -72.3119 63° Northeast 489 563 31,000  Level Boston Center
Fri 11:48:26 PM 44.6733 -72.1394 65° Northeast 489 563 31,000  Level Boston Center
Fri 11:49:26 PM 44.7292 -71.9697 64° Northeast 484 557 31,000  Level Boston Center
Fri 11:50:26 PM 44.7886 -71.7967 64° Northeast 484 557 31,000  Level Boston Center
Fri 11:51:26 PM 44.8481 -71.6261 65° Northeast 484 557 31,000  Level Boston Center
Fri 11:52:26 PM 44.9031 -71.4583 65° Northeast 484 557 31,000  Level Boston Center
Fri 11:53:26 PM 44.9597 -71.2872 64° Northeast 479 551 31,000  Level Boston Center
Fri 11:54:26 PM 45.0061 -71.1514 65° Northeast 474 545 31,000  Level Boston Center
Fri 11:55:26 PM 45.0664 -70.9647 65° Northeast 474 545 31,000  Level Boston Center
Fri 11:56:26 PM 45.1225 -70.7928 65° Northeast 474 545 31,000  Level Boston Center
Fri 11:57:26 PM 45.1803 -70.6203 65° Northeast 474 545 31,000  Level Boston Center
Fri 11:58:26 PM 45.2358 -70.4506 66° East 474 545 31,000  Level Boston Center
Fri 11:59:26 PM 45.2911 -70.2747 65° Northeast 474 545 31,000  Level Boston Center
Sat 12:00:26 AM 45.3481 -70.1011 66° East 474 545 31,000  Level Boston Center
Sat 12:01:26 AM 45.4028 -69.9244 65° Northeast 479 551 31,000  Level Boston Center
Sat 12:02:26 AM 45.4592 -69.7506 66° East 479 551 31,000  Level Boston Center
Sat 12:03:26 AM 45.5192 -69.5581 66° East 479 551 31,000  Level Boston Center
Sat 12:04:26 AM 45.5731 -69.3833 66° East 484 557 31,000  Level Boston Center
Sat 12:05:26 AM 45.6306 -69.2022 67° East 484 557 31,000  Level Boston Center
Sat 12:06:26 AM 45.6819 -69.0300 66° East 484 557 31,000  Level Boston Center
Sat 12:07:26 AM 45.7369 -68.8511 67° East 484 557 31,000  Level Boston Center
Sat 12:08:26 AM 45.7878 -68.6753 67° East 484 557 31,000 -50 Level Boston Center
Sat 12:09:26 AM 45.8403 -68.4989 66° East 484 557 30,900  Descending Boston Center
Sat 12:10:26 AM 45.8947 -68.3250 68° East 484 557 31,000 50 Climbing Boston Center
Sat 12:11:26 AM 45.9444 -68.1483 65° Northeast 479 551 31,000  Level Boston Center
Sat 12:12:26 AM 45.9950 -67.9919 64° Northeast 479 551 31,000 -50 Level Boston Center
Sat 12:13:26 AM 46.0528 -67.8200 55° Northeast 479 551 30,900 -50 Descending Boston Center
Sat 12:14:26 AM 46.1356 -67.6514 51° Northeast 469 540 30,900 50 Level Boston Center
Sat 12:15:26 AM 46.2208 -67.5000 50° Northeast 469 540 31,000  Climbing Boston Center
Sat 12:16:26 AM 46.3044 -67.3544 58° Northeast 469 540 30,900  Descending Boston Center
Sat 12:17:46 AM 46.4000 -67.1333 48° Northeast 470 541 31,000 43 Climbing Moncton Center
Sat 12:18:46 AM 46.4833 -67.0000 57° Northeast 480 552 31,000  Level Moncton Center
Sat 12:19:46 AM 46.5500 -66.8500 54° Northeast 470 541 31,000  Level Moncton Center
Sat 12:20:46 AM 46.6333 -66.6833 42° Northeast 470 541 31,000  Level Moncton Center
Sat 12:21:46 AM 46.7333 -66.5500 57° Northeast 470 541 31,000  Level Moncton Center
Sat 12:22:46 AM 46.8000 -66.4000 54° Northeast 470 541 31,000  Level Moncton Center
Sat 12:23:46 AM 46.8833 -66.2333 51° Northeast 470 541 31,000  Level Moncton Center
Sat 12:24:46 AM 46.9667 -66.0833 54° Northeast 470 541 31,000  Level Moncton Center
Sat 12:25:46 AM 47.0333 -65.9500 56° Northeast 470 541 31,000  Level Moncton Center
Sat 12:26:46 AM 47.1167 -65.7667 47° Northeast 470 541 31,000  Level Moncton Center
Sat 12:27:46 AM 47.2000 -65.6333 51° Northeast 470 541 31,000  Level Moncton Center
Sat 12:28:46 AM 47.2833 -65.4833 54° Northeast 470 541 31,000  Level Moncton Center
Sat 12:29:46 AM 47.3667 -65.3167 62° Northeast 480 552 31,000  Level Moncton Center
Sat 12:30:46 AM 47.4333 -65.1333 47° Northeast 480 552 31,000  Level Moncton Center
Sat 12:31:46 AM 47.5167 -65.0000 56° Northeast 480 552 31,000  Level Moncton Center
Sat 12:32:46 AM 47.6000 -64.8167 50° Northeast 490 564 31,000  Level Moncton Center
Sat 12:33:46 AM 47.6833 -64.6667 53° Northeast 490 564 31,000  Level Moncton Center
Sat 12:34:46 AM 47.7667 -64.5000 56° Northeast 490 564 31,000  Level Moncton Center
Sat 12:35:46 AM 47.8333 -64.3500 53° Northeast 490 564 31,000  Level Moncton Center
Sat 12:36:25 AM 47.9000 -64.2167 53° Northeast 490 564 31,000  Level Gander Center
Sat 12:37:25 AM 47.9667 -64.0833 56° Northeast 490 564 31,000  Level Gander Center
Sat 12:38:25 AM 48.0500 -63.9000 59° Northeast 490 564 31,000  Level Gander Center
Sat 12:39:25 AM 48.1167 -63.7333 53° Northeast 490 564 31,000  Level Gander Center
Sat 12:40:25 AM 48.2000 -63.5667 45° Northeast 480 552 31,000  Level Gander Center
Sat 12:41:25 AM 48.3000 -63.4167 59° Northeast 490 564 31,000  Level Gander Center
Sat 12:42:25 AM 48.3667 -63.2500 61° Northeast 490 564 31,000  Level Gander Center
Sat 12:43:25 AM 48.4333 -63.0667 53° Northeast 480 552 31,000  Level Gander Center
Sat 12:44:25 AM 48.5167 -62.9000 55° Northeast 490 564 31,000  Level Gander Center
Sat 12:45:25 AM 48.6000 -62.7167 56° Northeast 490 564 31,000  Level Gander Center
Sat 12:46:25 AM 48.6667 -62.5667 48° Northeast 480 552 31,000  Level Gander Center
Sat 12:47:25 AM 48.7667 -62.4000 61° Northeast 490 564 31,000  Level Gander Center
Sat 12:48:25 AM 48.8333 -62.2167 56° Northeast 500 575 31,000  Level Gander Center
Sat 12:49:25 AM 48.9000 -62.0667 58° Northeast 480 552 31,000  Level Gander Center
Sat 12:50:25 AM 48.9833 -61.8667 50° Northeast 490 564 31,000  Level Gander Center
Sat 12:51:25 AM 49.0667 -61.7167 44° Northeast 490 564 31,000  Level Gander Center
Sat 12:52:25 AM 49.1667 -61.5667 44° Northeast 500 575 31,000  Level Gander Center
Sat 12:53:25 AM 49.2667 -61.4167 52° Northeast 500 575 31,000  Level Gander Center
Sat 12:54:25 AM 49.3500 -61.2500 40° Northeast 500 575 31,000  Level Gander Center
Sat 12:55:25 AM 49.4667 -61.1000 46° Northeast 500 575 31,000  Level Gander Center
Sat 12:56:25 AM 49.5500 -60.9667 45° Northeast 510 587 31,000  Level Gander Center
Sat 12:57:25 AM 49.6667 -60.7833 37° Northeast 510 587 31,000  Level Gander Center
Sat 12:58:25 AM 49.7667 -60.6667 47° Northeast 500 575 31,000  Level Gander Center
Sat 12:59:25 AM 49.8667 -60.5000 44° Northeast 510 587 31,000  Level Gander Center
Sat 01:00:25 AM 49.9667 -60.3500 47° Northeast 510 587 31,000  Level Gander Center
Sat 01:01:25 AM 50.0667 -60.1833 44° Northeast 510 587 31,000  Level Gander Center
Sat 01:02:25 AM 50.1667 -60.0333 47° Northeast 510 587 31,000  Level Gander Center
Sat 01:03:25 AM 50.2667 -59.8667 39° Northeast 510 587 31,000  Level Gander Center
Sat 01:04:25 AM 50.3833 -59.7167 55° Northeast 510 587 31,000  Level Gander Center
Sat 01:05:25 AM 50.4500 -59.5667 44° Northeast 510 587 31,000  Level Gander Center
Sat 01:06:25 AM 50.5500 -59.4167 47° Northeast 500 575 31,000  Level Gander Center
Sat 01:07:25 AM 50.6500 -59.2500 49° Northeast 500 575 31,000 650 Level Gander Center
Sat 01:08:25 AM 50.7500 -59.0667 52° Northeast 500 575 32,300 1,150 Climbing Gander Center
Sat 01:09:25 AM 50.8333 -58.9000 52° Northeast 500 575 33,300 850 Climbing Gander Center
Sat 01:10:25 AM 50.9167 -58.7333 54° Northeast 500 575 34,000 350 Climbing Gander Center
Sat 01:11:25 AM 51.0000 -58.5500 51° Northeast 500 575 34,000  Level Gander Center
Sat 01:12:25 AM 51.0833 -58.3833 46° Northeast 500 575 34,000  Level Gander Center
Sat 01:13:25 AM 51.1833 -58.2167 56° Northeast 490 564 34,000  Level Gander Center
Sat 01:14:25 AM 51.2667 -58.0167 51° Northeast 500 575 34,000  Level Gander Center
Sat 01:15:25 AM 51.3500 -57.8500 51° Northeast 500 575 34,000  Level Gander Center
Sat 01:16:25 AM 51.4333 -57.6833 51° Northeast 500 575 34,000  Level Gander Center
Sat 01:17:25 AM 51.5333 -57.4833 57° Northeast 510 587 34,000  Level Gander Center
Sat 01:18:25 AM 51.6000 -57.3167 49° Northeast 510 587 34,000  Level Gander Center
Sat 01:19:25 AM 51.7000 -57.1333 54° Northeast 510 587 34,000  Level Gander Center
Sat 01:20:25 AM 51.7833 -56.9500 56° Northeast 510 587 34,000  Level Gander Center
Sat 01:21:25 AM 51.8667 -56.7500 51° Northeast 510 587 34,000  Level Gander Center
Sat 01:22:25 AM 51.9500 -56.5833 56° Northeast 520 598 34,000  Level Gander Center
Sat 01:23:25 AM 52.0333 -56.3833 51° Northeast 520 598 34,000  Level Gander Center
Sat 01:24:25 AM 52.1167 -56.2167 51° Northeast 520 598 34,000  Level Gander Center
Sat 01:25:25 AM 52.2167 -56.0167 56° Northeast 520 598 34,000  Level Gander Center
Sat 01:26:25 AM 52.3000 -55.8167 53° Northeast 520 598 34,000  Level Gander Center
Sat 01:27:25 AM 52.3833 -55.6333 56° Northeast 530 610 34,000  Level Gander Center
Sat 01:28:25 AM 52.4667 -55.4333 56° Northeast 530 610 34,000  Level Gander Center
Sat 01:29:25 AM 52.5500 -55.2333 53° Northeast 530 610 34,000  Level Gander Center
Sat 01:30:25 AM 52.6333 -55.0500 55° Northeast 530 610 34,000  Level Gander Center
Sat 01:31:25 AM 52.7167 -54.8500 48° Northeast 530 610 34,000  Level Gander Center
Sat 01:32:25 AM 52.8167 -54.6667 61° Northeast 520 598 34,000  Level Gander Center
Sat 01:33:25 AM 52.8833 -54.4667 53° Northeast 520 598 34,000  Level Gander Center
Sat 01:34:25 AM 52.9667 -54.2833 57° Northeast 520 598 34,000  Level Gander Center
Sat 01:35:25 AM 53.0500 -54.0667 61° Northeast 510 587 34,000  Level Gander Center
Sat 01:36:25 AM 53.1167 -53.8667 69° East 510 587 34,000  Level Gander Center
Sat 01:37:25 AM 53.1667 -53.6500 70° East 500 575 34,000  Level Gander Center
Sat 01:38:25 AM 53.2167 -53.4167 61° Northeast 500 575 34,000  Level Gander Center
Sat 01:39:25 AM 53.2833 -53.2167 70° East 510 587 34,000  Level Gander Center
Sat 01:40:25 AM 53.3333 -52.9833 67° East 510 587 34,000  Level Gander Center
Sat 01:41:25 AM 53.3833 -52.7833 71° East 510 587 34,000  Level Gander Center
Sat 01:42:25 AM 53.4333 -52.5333 67° East 510 587 34,000  Level Gander Center
Sat 01:43:25 AM 53.4833 -52.3333 70° East 510 587 34,000  Level Gander Center
Sat 01:44:25 AM 53.5333 -52.1000 69° East 510 587 34,000  Level Gander Center
Sat 01:45:25 AM 53.5833 -51.8833 67° East 510 587 34,000  Level Gander Center
Sat 01:46:25 AM 53.6333 -51.6833 71° East 510 587 34,000  Level Gander Center
Sat 01:47:25 AM 53.6833 -51.4333 67° East 510 587 34,000  Level Gander Center
Sat 01:48:25 AM 53.7333 -51.2333 76° East 500 575 34,000  Level Gander Center
Sat 01:49:25 AM 53.7667 -51.0000 69° East 500 575 34,000  Level Gander Center
Sat 01:50:25 AM 53.8167 -50.7833 62° Northeast 500 575 34,000  Level Gander Center
Sat 01:51:25 AM 53.8833 -50.5667 77° East 510 587 34,000  Level Gander Center
Sat 01:52:25 AM 53.9167 -50.3167 75° East 510 587 34,000 415 Level Gander Center
Sat 01:55:02 AM 54.0000 -49.7833 75° East 270 311 35,500 -36 Climbing Gander Center
Sat 02:02:15 AM 54.2323 -48.2305 77° East  Level FlightAware Approximate
Sat 02:03:15 AM 54.2603 -48.0130 77° East  Level FlightAware Approximate
Sat 02:04:15 AM 54.2879 -47.7951 77° East  Level FlightAware Approximate
Sat 02:05:15 AM 54.3150 -47.5769 77° East  Level FlightAware Approximate
Sat 02:06:15 AM 54.3418 -47.3585 77° East  Level FlightAware Approximate
Sat 02:07:15 AM 54.3682 -47.1397 78° East  Level FlightAware Approximate
Sat 02:08:15 AM 54.3942 -46.9207 78° East  Level FlightAware Approximate
Sat 02:09:15 AM 54.4198 -46.7015 78° East  Level FlightAware Approximate
Sat 02:10:15 AM 54.4450 -46.4819 78° East  Level FlightAware Approximate
Sat 02:11:15 AM 54.4698 -46.2621 78° East  Level FlightAware Approximate
Sat 02:12:15 AM 54.4964 -46.0428 78° East  Level FlightAware Approximate
Sat 02:13:15 AM 54.5318 -45.8271 79° East  Level FlightAware Approximate
Sat 02:14:15 AM 54.5669 -45.6109 79° East  Level FlightAware Approximate
Sat 02:15:15 AM 54.6015 -45.3944 79° East  Level FlightAware Approximate
Sat 02:16:15 AM 54.6358 -45.1775 79° East  Level FlightAware Approximate
Sat 02:17:15 AM 54.6697 -44.9603 79° East  Level FlightAware Approximate
Sat 02:18:15 AM 54.7032 -44.7427 80° East  Level FlightAware Approximate
Sat 02:19:15 AM 54.7363 -44.5247 80° East  Level FlightAware Approximate
Sat 02:20:15 AM 54.7690 -44.3064 80° East  Level FlightAware Approximate
Sat 02:21:15 AM 54.8013 -44.0877 80° East  Level FlightAware Approximate
Sat 02:22:15 AM 54.8332 -43.8687 80° East  Level FlightAware Approximate
Sat 02:23:15 AM 54.8648 -43.6494 81° East  Level FlightAware Approximate
Sat 02:24:15 AM 54.8959 -43.4297 81° East  Level FlightAware Approximate
Sat 02:25:15 AM 54.9267 -43.2096 81° East  Level FlightAware Approximate
Sat 02:26:15 AM 54.9570 -42.9893 81° East  Level FlightAware Approximate
Sat 02:27:15 AM 54.9869 -42.7686 81° East  Level FlightAware Approximate
Sat 02:28:15 AM 55.0165 -42.5475 82° East  Level FlightAware Approximate
Sat 02:29:15 AM 55.0456 -42.3262 82° East  Level FlightAware Approximate
Sat 02:30:15 AM 55.0743 -42.1045 82° East  Level FlightAware Approximate
Sat 02:31:15 AM 55.1027 -41.8825 82° East  Level FlightAware Approximate
Sat 02:32:15 AM 55.1306 -41.6602 82° East  Level FlightAware Approximate
Sat 02:33:15 AM 55.1581 -41.4376 83° East  Level FlightAware Approximate
Sat 02:34:15 AM 55.1853 -41.2147 83° East  Level FlightAware Approximate
Sat 02:35:15 AM 55.2120 -40.9915 83° East  Level FlightAware Approximate
Sat 02:36:15 AM 55.2383 -40.7680 83° East  Level FlightAware Approximate
Sat 02:37:15 AM 55.2642 -40.5442 84° East  Level FlightAware Approximate
Sat 02:38:15 AM 55.2897 -40.3201 84° East  Level FlightAware Approximate
Sat 02:39:15 AM 55.3052 -40.0931 84° East  Level FlightAware Approximate
Sat 02:40:15 AM 55.3203 -39.8659 84° East  Level FlightAware Approximate
Sat 02:41:15 AM 55.3350 -39.6385 84° East  Level FlightAware Approximate
Sat 02:42:15 AM 55.3493 -39.4110 85° East  Level FlightAware Approximate
Sat 02:43:15 AM 55.3632 -39.1833 85° East  Level FlightAware Approximate
Sat 02:44:15 AM 55.3766 -38.9555 85° East  Level FlightAware Approximate
Sat 02:45:15 AM 55.3896 -38.7275 85° East  Level FlightAware Approximate
Sat 02:46:15 AM 55.4022 -38.4994 85° East  Level FlightAware Approximate
Sat 02:47:15 AM 55.4144 -38.2711 85° East  Level FlightAware Approximate
Sat 02:48:15 AM 55.4261 -38.0427 86° East  Level FlightAware Approximate
Sat 02:49:15 AM 55.4374 -37.8141 86° East  Level FlightAware Approximate
Sat 02:50:15 AM 55.4483 -37.5854 86° East  Level FlightAware Approximate
Sat 02:51:15 AM 55.4587 -37.3567 86° East  Level FlightAware Approximate
Sat 02:52:15 AM 55.4688 -37.1277 86° East  Level FlightAware Approximate
Sat 02:53:15 AM 55.4784 -36.8987 87° East  Level FlightAware Approximate
Sat 02:54:15 AM 55.4875 -36.6696 87° East  Level FlightAware Approximate
Sat 02:55:15 AM 55.4963 -36.4403 87° East  Level FlightAware Approximate
Sat 02:56:15 AM 55.5046 -36.2110 87° East  Level FlightAware Approximate
Sat 02:57:15 AM 55.5125 -35.9815 87° East  Level FlightAware Approximate
Sat 02:58:15 AM 55.5200 -35.7520 88° East  Level FlightAware Approximate
Sat 02:59:15 AM 55.5270 -35.5224 88° East  Level FlightAware Approximate
Sat 03:00:15 AM 55.5336 -35.2927 88° East  Level FlightAware Approximate
Sat 03:01:15 AM 55.5398 -35.0629 88° East  Level FlightAware Approximate
Sat 03:02:15 AM 55.5455 -34.8331 88° East  Level FlightAware Approximate
Sat 03:03:15 AM 55.5508 -34.6032 89° East  Level FlightAware Approximate
Sat 03:04:15 AM 55.5557 -34.3732 89° East  Level FlightAware Approximate
Sat 03:05:15 AM 55.5602 -34.1432 89° East  Level FlightAware Approximate
Sat 03:06:15 AM 55.5642 -33.9131 89° East  Level FlightAware Approximate
Sat 03:07:15 AM 55.5678 -33.6830 89° East  Level FlightAware Approximate
Sat 03:08:15 AM 55.5709 -33.4529 90° East  Level FlightAware Approximate
Sat 03:09:15 AM 55.5737 -33.2227 90° East  Level FlightAware Approximate
Sat 03:10:15 AM 55.5760 -32.9925 90° East  Level FlightAware Approximate
Sat 03:11:15 AM 55.5778 -32.7622 90° East  Level FlightAware Approximate
Sat 03:12:15 AM 55.5792 -32.5320 90° East  Level FlightAware Approximate
Sat 03:13:15 AM 55.5802 -32.3017 91° East  Level FlightAware Approximate
Sat 03:14:15 AM 55.5808 -32.0714 91° East  Level FlightAware Approximate
Sat 03:15:15 AM 55.5810 -31.8411 91° East  Level FlightAware Approximate
Sat 03:16:15 AM 55.5807 -31.6108 91° East  Level FlightAware Approximate
Sat 03:17:15 AM 55.5799 -31.3806 91° East  Level FlightAware Approximate
Sat 03:18:15 AM 55.5788 -31.1503 92° East  Level FlightAware Approximate
Sat 03:19:15 AM 55.5772 -30.9200 92° East  Level FlightAware Approximate
Sat 03:20:15 AM 55.5752 -30.6898 92° East  Level FlightAware Approximate
Sat 03:21:15 AM 55.5727 -30.4596 92° East  Level FlightAware Approximate
Sat 03:22:15 AM 55.5679 -30.2295 92° East  Level FlightAware Approximate
Sat 03:23:15 AM 55.5627 -29.9995 92° East  Level FlightAware Approximate
Sat 03:24:15 AM 55.5571 -29.7696 93° East  Level FlightAware Approximate
Sat 03:25:15 AM 55.5510 -29.5397 93° East  Level FlightAware Approximate
Sat 03:26:15 AM 55.5445 -29.3099 93° East  Level FlightAware Approximate
Sat 03:27:15 AM 55.5376 -29.0801 93° East  Level FlightAware Approximate
Sat 03:28:15 AM 55.5302 -28.8505 93° East  Level FlightAware Approximate
Sat 03:29:15 AM 55.5224 -28.6209 94° East  Level FlightAware Approximate
Sat 03:30:15 AM 55.5142 -28.3915 94° East  Level FlightAware Approximate
Sat 03:31:15 AM 55.5056 -28.1621 94° East  Level FlightAware Approximate
Sat 03:32:15 AM 55.4965 -27.9328 94° East  Level FlightAware Approximate
Sat 03:33:15 AM 55.4870 -27.7037 94° East  Level FlightAware Approximate
Sat 03:34:15 AM 55.4771 -27.4747 95° East  Level FlightAware Approximate
Sat 03:35:15 AM 55.4667 -27.2457 95° East  Level FlightAware Approximate
Sat 03:36:15 AM 55.4559 -27.0169 95° East  Level FlightAware Approximate
Sat 03:37:15 AM 55.4447 -26.7883 95° East  Level FlightAware Approximate
Sat 03:38:15 AM 55.4331 -26.5597 95° East  Level FlightAware Approximate
Sat 03:39:15 AM 55.4210 -26.3313 96° East  Level FlightAware Approximate
Sat 03:40:15 AM 55.4085 -26.1031 96° East  Level FlightAware Approximate
Sat 03:41:15 AM 55.3956 -25.8750 96° East  Level FlightAware Approximate
Sat 03:42:15 AM 55.3823 -25.6470 96° East  Level FlightAware Approximate
Sat 03:43:15 AM 55.3685 -25.4192 96° East  Level FlightAware Approximate
Sat 03:44:15 AM 55.3544 -25.1915 96° East  Level FlightAware Approximate
Sat 03:45:15 AM 55.3397 -24.9641 97° East  Level FlightAware Approximate
Sat 03:46:15 AM 55.3247 -24.7367 97° East  Level FlightAware Approximate
Sat 03:47:15 AM 55.3093 -24.5096 97° East  Level FlightAware Approximate
Sat 03:48:15 AM 55.2934 -24.2826 97° East  Level FlightAware Approximate
Sat 03:49:15 AM 55.2771 -24.0559 97° East  Level FlightAware Approximate
Sat 03:50:15 AM 55.2604 -23.8293 98° East  Level FlightAware Approximate
Sat 03:51:15 AM 55.2433 -23.6029 98° East  Level FlightAware Approximate
Sat 03:52:15 AM 55.2257 -23.3767 98° East  Level FlightAware Approximate
Sat 03:53:15 AM 55.2077 -23.1507 98° East  Level FlightAware Approximate
Sat 03:54:15 AM 55.1894 -22.9249 98° East  Level FlightAware Approximate
Sat 03:55:15 AM 55.1706 -22.6994 99° East  Level FlightAware Approximate
Sat 03:56:15 AM 55.1513 -22.4740 99° East  Level FlightAware Approximate
Sat 03:57:15 AM 55.1317 -22.2489 99° East  Level FlightAware Approximate
Sat 03:58:15 AM 55.1117 -22.0240 99° East  Level FlightAware Approximate
Sat 03:59:15 AM 55.0922 -21.8104 99° East  Level FlightAware Approximate
Sat 04:00:15 AM 55.0724 -21.5971 99° East  Level FlightAware Approximate
Sat 04:01:15 AM 55.0522 -21.3840 100° East  Level FlightAware Approximate
Sat 04:02:15 AM 55.0317 -21.1712 100° East  Level FlightAware Approximate
Sat 04:03:15 AM 55.0108 -20.9585 100° East  Level FlightAware Approximate
Sat 04:04:15 AM 54.9895 -20.7461 100° East  Level FlightAware Approximate
Sat 04:05:15 AM 54.9678 -20.5338 100° East  Level FlightAware Approximate
Sat 04:06:15 AM 54.9458 -20.3219 101° East  Level FlightAware Approximate
Sat 04:07:15 AM 54.9234 -20.1101 101° East  Level FlightAware Approximate
Sat 04:08:15 AM 54.8997 -19.8989 101° East  Level FlightAware Approximate
Sat 04:09:15 AM 54.8756 -19.6880 101° East  Level FlightAware Approximate
Sat 04:10:15 AM 54.8512 -19.4773 101° East  Level FlightAware Approximate
Sat 04:11:15 AM 54.8264 -19.2669 101° East  Level FlightAware Approximate
Sat 04:12:15 AM 54.8012 -19.0567 102° East  Level FlightAware Approximate
Sat 04:13:15 AM 54.7757 -18.8468 102° East  Level FlightAware Approximate
Sat 04:14:15 AM 54.7498 -18.6372 102° East  Level FlightAware Approximate
Sat 04:15:15 AM 54.7235 -18.4278 102° East  Level FlightAware Approximate
Sat 04:16:15 AM 54.6969 -18.2187 102° East  Level FlightAware Approximate
Sat 04:17:15 AM 54.6700 -18.0099 102° East  Level FlightAware Approximate
Sat 04:18:15 AM 54.6426 -17.8013 103° East  Level FlightAware Approximate
Sat 04:19:15 AM 54.6149 -17.5931 103° East  Level FlightAware Approximate
Sat 04:20:15 AM 54.5869 -17.3851 103° East  Level FlightAware Approximate
Sat 04:21:15 AM 54.5585 -17.1774 103° East  Level FlightAware Approximate
Sat 04:22:15 AM 54.5789 -16.9701 104° East  Level FlightAware Approximate
Sat 04:23:15 AM 54.5482 -16.7634 104° East  Level FlightAware Approximate
Sat 04:24:15 AM 54.5171 -16.5571 104° East  Level FlightAware Approximate
Sat 04:25:15 AM 54.4856 -16.3511 104° East  Level FlightAware Approximate
Sat 04:26:15 AM 54.4538 -16.1454 104° East  Level FlightAware Approximate
Sat 04:27:15 AM 54.4216 -15.9401 104° East  Level FlightAware Approximate
Sat 04:28:15 AM 54.3891 -15.7350 104° East  Level FlightAware Approximate
Sat 04:29:15 AM 54.3562 -15.5303 105° East  Level FlightAware Approximate
Sat 04:30:15 AM 54.3230 -15.3259 105° East  Level FlightAware Approximate
Sat 04:31:15 AM 54.2895 -15.1219 105° East  Level FlightAware Approximate
Sat 04:32:15 AM 54.2556 -14.9181 105° East  Level FlightAware Approximate
Sat 04:33:15 AM 54.2213 -14.7148 105° East  Level FlightAware Approximate
Sat 04:34:15 AM 54.1867 -14.5117 105° East  Level FlightAware Approximate
Sat 04:35:15 AM 54.1518 -14.3090 105° East  Level FlightAware Approximate
Sat 04:36:15 AM 54.1166 -14.1067 106° East  Level FlightAware Approximate
Sat 04:37:15 AM 54.0888 -13.9018 106° East  Level FlightAware Approximate
Sat 04:38:15 AM 54.0528 -13.7002 106° East  Level FlightAware Approximate
Sat 04:39:15 AM 54.0161 -13.4991 106° East  Level FlightAware Approximate
Sat 04:40:15 AM 53.9790 -13.2983 106° East  Level FlightAware Approximate
Sat 04:41:15 AM 53.9417 -13.0979 106° East  Level FlightAware Approximate
Sat 04:42:15 AM 53.9040 -12.8978 107° East  Level FlightAware Approximate
Sat 04:43:15 AM 53.8659 -12.6981 107° East  Level FlightAware Approximate
Sat 04:44:15 AM 53.8276 -12.4988 107° East  Level FlightAware Approximate
Sat 04:45:15 AM 53.7889 -12.2998 107° East  Level FlightAware Approximate
Sat 04:46:15 AM 53.7499 -12.1012 107° East  Level FlightAware Approximate
Sat 04:47:15 AM 53.7105 -11.9030 107° East  Level FlightAware Approximate
Sat 04:48:15 AM 53.6708 -11.7051 107° East  Level FlightAware Approximate
Sat 04:49:15 AM 53.6256 -11.5114 107° East  Level FlightAware Approximate
Sat 04:50:15 AM 53.5919 -11.3108 108° East  Level FlightAware Approximate
Sat 04:51:15 AM 53.5579 -11.1105 108° East  Level FlightAware Approximate
Sat 04:52:15 AM 53.5235 -10.9105 108° East  Level FlightAware Approximate
Sat 04:53:15 AM 53.4888 -10.7109 108° East  Level FlightAware Approximate
Sat 04:54:15 AM 53.4538 -10.5116 108° East  Level FlightAware Approximate
Sat 04:55:15 AM 53.4184 -10.3126 109° East  Level FlightAware Approximate
Sat 04:56:15 AM 53.3828 -10.1140 109° East  Level FlightAware Approximate
Sat 04:57:15 AM 53.3467 -9.9157 109° East  Level FlightAware Approximate
Sat 04:58:15 AM 53.3104 -9.7177 109° East  Level FlightAware Approximate
Sat 04:59:15 AM 53.2737 -9.5201 109° East  Level FlightAware Approximate
Sat 05:00:15 AM 53.2367 -9.3228 110° East  Level FlightAware Approximate
Sat 05:01:15 AM 53.1994 -9.1258 110° East  Level FlightAware Approximate
Sat 05:02:15 AM 53.1618 -8.9292 110° East  Level FlightAware Approximate
Sat 05:03:15 AM 53.1238 -8.7330 110° East  Level FlightAware Approximate
Sat 05:04:15 AM 53.0855 -8.5371 111° Southeast  Level FlightAware Approximate
Sat 05:05:15 AM 53.0469 -8.3415 111° Southeast  Level FlightAware Approximate
Sat 05:06:15 AM 53.0079 -8.1463 111° Southeast  Level FlightAware Approximate
Sat 05:07:15 AM 52.9687 -7.9514 111° Southeast  Level FlightAware Approximate
Sat 05:08:15 AM 52.9291 -7.7569 112° Southeast  Level FlightAware Approximate
Sat 05:09:15 AM 52.8892 -7.5628 112° Southeast  Level FlightAware Approximate
Sat 05:10:15 AM 52.8490 -7.3690 112° Southeast  Level FlightAware Approximate
Sat 05:11:15 AM 52.8085 -7.1755 113° Southeast  Level FlightAware Approximate
Sat 05:12:15 AM 52.7747 -6.9788 113° Southeast  Level FlightAware Approximate
Sat 05:13:15 AM 52.7406 -6.7823 113° Southeast  Level FlightAware Approximate
Sat 05:14:15 AM 52.7061 -6.5862 114° Southeast  Level FlightAware Approximate
Sat 05:15:15 AM 52.6714 -6.3904 115° Southeast  Level FlightAware Approximate
Sat 05:16:15 AM 52.6363 -6.1948 115° Southeast  Level FlightAware Approximate
Sat 05:17:15 AM 52.6008 -5.9996 116° Southeast  Level FlightAware Approximate
Sat 05:18:15 AM 52.5651 -5.8047 117° Southeast  Level FlightAware Approximate
Sat 05:19:15 AM 52.5293 -5.6101 117° Southeast  Level FlightAware Approximate
Sat 05:20:15 AM 52.4931 -5.4157 118° Southeast  Level FlightAware Approximate
Sat 05:21:15 AM 52.4574 -5.2213 119° Southeast  Level FlightAware Approximate
Sat 05:22:15 AM 52.4213 -5.0272 121° Southeast  Level FlightAware Approximate
Sat 05:23:15 AM 52.3849 -4.8334 122° Southeast  Level FlightAware Approximate
Sat 05:24:15 AM 52.3483 -4.6400 124° Southeast  Level FlightAware Approximate
Sat 05:25:15 AM 52.3112 -4.4468 126° Southeast  Level FlightAware Approximate
Sat 05:31:13 AM 51.6747 -3.0477 111° Southeast 443 510 26,100  Level FlightAware ADS-B
Sat 05:31:54 AM 51.6451 -2.9247 111° Southeast 439 505 25,500 -930 Descending FlightAware ADS-B
Sat 05:32:24 AM 51.6228 -2.8315 111° Southeast 436 502 25,000 -938 Descending FlightAware ADS-B
Sat 05:32:58 AM 51.5990 -2.7319 111° Southeast 436 502 24,500 -1,015 Descending FlightAware ADS-B
Sat 05:33:29 AM 51.5757 -2.6361 111° Southeast 435 501 23,900 -952 Descending FlightAware ADS-B
Sat 05:34:01 AM 51.5527 -2.5413 112° Southeast 434 499 23,500 -831 Descending FlightAware ADS-B
Sat 05:34:34 AM 51.5281 -2.4416 111° Southeast 431 496 23,000 -1,125 Descending FlightAware ADS-B
Sat 05:35:05 AM 51.5074 -2.3561 111° Southeast 401 461 22,300 -1,219 Descending FlightAware ADS-B
Sat 05:35:38 AM 51.4857 -2.2662 112° Southeast 384 442 21,700 -1,406 Descending FlightAware ADS-B
Sat 05:36:09 AM 51.4657 -2.1858 107° East 374 430 20,800 -1,756 Descending FlightAware ADS-B
Sat 05:36:19 AM 51.4606 -2.1597 102° East 380 437 20,500 -2,750 Descending FlightAware ADS-B
Sat 05:36:33 AM 51.4553 -2.1203 105° East 383 441 19,700 -2,267 Descending FlightAware ADS-B
Sat 05:37:04 AM 51.4417 -2.0378 107° East 376 433 18,800 -1,770 Descending FlightAware ADS-B
Sat 05:37:34 AM 51.4263 -1.9589 108° East 371 427 17,900 -1,800 Descending FlightAware ADS-B
Sat 05:37:54 AM 51.4159 -1.9069 109° East 369 425 17,300 -1,800 Descending FlightAware ADS-B
Sat 05:38:24 AM 51.3995 -1.8288 109° East 365 420 16,400 -1,700 Descending FlightAware ADS-B
Sat 05:38:54 AM 51.3833 -1.7548 110° East 342 394 15,600 -1,600 Descending FlightAware ADS-B
Sat 05:39:24 AM 51.3675 -1.6846 110° East 335 386 14,800 -1,548 Descending FlightAware ADS-B
Sat 05:39:56 AM 51.3503 -1.6103 109° East 330 380 14,000 -1,143 Descending FlightAware ADS-B
Sat 05:40:06 AM 51.3456 -1.5881 102° East 329 379 14,000  Level FlightAware ADS-B
Sat 05:40:13 AM 51.3433 -1.5710 99° East 330 380 14,000  Level FlightAware ADS-B
Sat 05:40:28 AM 51.3396 -1.5350 95° East 328 377 14,000  Level FlightAware ADS-B
Sat 05:40:42 AM 51.3377 -1.5021 91° East 319 367 14,000  Level FlightAware ADS-B
Sat 05:41:12 AM 51.3366 -1.4336 91° East 294 338 14,000 -98 Level FlightAware ADS-B
Sat 05:41:43 AM 51.3359 -1.3702 91° East 275 316 13,900 -462 Descending FlightAware ADS-B
Sat 05:42:04 AM 51.3353 -1.3283 90° East 270 311 13,600 -824 Descending FlightAware ADS-B
Sat 05:42:34 AM 51.3352 -1.2692 91° East 266 306 13,200 -600 Descending FlightAware ADS-B
Sat 05:43:04 AM 51.3346 -1.2086 90° East 267 307 13,000 -273 Descending FlightAware ADS-B
Sat 05:43:18 AM 51.3346 -1.1889 91° East 268 308 13,000  Level FlightAware ADS-B
Sat 05:43:48 AM 51.3341 -1.1217 91° East 268 308 13,000 -400 Level FlightAware ADS-B
Sat 05:44:18 AM 51.3336 -1.0619 91° East 269 310 12,600 -800 Descending FlightAware ADS-B
Sat 05:44:48 AM 51.3331 -1.0029 91° East 263 303 12,200 -590 Descending FlightAware ADS-B
Sat 05:45:19 AM 51.3324 -0.9443 91° East 261 300 12,000 -194 Descending FlightAware ADS-B
Sat 05:45:50 AM 51.3319 -0.8842 91° East 264 304 12,000 -492 Level FlightAware ADS-B
Sat 05:46:20 AM 51.3312 -0.8251 91° East 268 308 11,500 -1,000 Descending FlightAware ADS-B
Sat 05:46:50 AM 51.3307 -0.7649 91° East 265 305 11,000 -492 Descending FlightAware ADS-B
Sat 05:47:21 AM 51.3300 -0.7065 91° East 259 298 11,000 -222 Level FlightAware ADS-B
Sat 05:47:44 AM 51.3295 -0.6610 92° East 262 302 10,800 -706 Descending FlightAware ADS-B
Sat 05:47:55 AM 51.3291 -0.6411 91° East 262 302 10,600 -1,024 Descending FlightAware ADS-B
Sat 05:48:25 AM 51.3286 -0.5826 91° East 259 298 10,100 -933 Descending FlightAware ADS-B
Sat 05:48:40 AM 51.3283 -0.5538 91° East 257 296 9,900 -968 Descending FlightAware ADS-B
Sat 05:48:56 AM 51.3279 -0.5237 92° East 255 293 9,600 -1,000 Descending FlightAware ADS-B
Sat 05:49:04 AM 51.3276 -0.5084 95° East 254 292 9,500 -750 Descending FlightAware ADS-B
Sat 05:49:12 AM 51.3269 -0.4945 95° East 253 291 9,400 -900 Descending FlightAware ADS-B
Sat 05:49:24 AM 51.3257 -0.4722 92° East 252 290 9,200 -889 Descending FlightAware ADS-B
Sat 05:49:39 AM 51.3250 -0.4439 92° East 248 285 9,000 -387 Descending FlightAware ADS-B
Sat 05:49:55 AM 51.3243 -0.4158 92° East 241 277 9,000  Level FlightAware ADS-B
Sat 05:50:09 AM 51.3237 -0.3909 99° East 239 275 9,000  Level FlightAware ADS-B
Sat 05:50:14 AM 51.3228 -0.3816 107° East 240 276 9,000  Level FlightAware ADS-B
Sat 05:50:18 AM 51.3217 -0.3760 117° Southeast 240 276 9,000  Level FlightAware ADS-B
Sat 05:50:24 AM 51.3184 -0.3658 128° Southeast 238 274 9,000  Level FlightAware ADS-B
Sat 05:50:28 AM 51.3158 -0.3604 134° Southeast 238 274 9,000  Level FlightAware ADS-B
Sat 05:50:33 AM 51.3122 -0.3545 143° Southeast 239 275 9,000  Level FlightAware ADS-B
Sat 05:50:39 AM 51.3062 -0.3473 152° Southeast 240 276 9,000  Level FlightAware ADS-B
Sat 05:50:43 AM 51.3032 -0.3447 159° South 241 277 9,000  Level FlightAware ADS-B
Sat 05:50:49 AM 51.2959 -0.3402 176° South 243 280 9,000  Level FlightAware ADS-B
Sat 05:51:01 AM 51.2825 -0.3385 193° South 247 284 9,000  Level FlightAware ADS-B
Sat 05:51:08 AM 51.2748 -0.3413 201° Southwest 250 288 9,000  Level FlightAware ADS-B
Sat 05:51:11 AM 51.2714 -0.3434 208° Southwest 252 290 9,000  Level FlightAware ADS-B
Sat 05:51:15 AM 51.2672 -0.3470 215° Southwest 255 293 9,000  Level FlightAware ADS-B
Sat 05:51:20 AM 51.2625 -0.3522 222° Southwest 259 298 9,000  Level FlightAware ADS-B
Sat 05:51:24 AM 51.2595 -0.3565 232° Southwest 261 300 9,000  Level FlightAware ADS-B
Sat 05:51:30 AM 51.2543 -0.3670 241° Southwest 265 305 9,000  Level FlightAware ADS-B
Sat 05:51:34 AM 51.2523 -0.3728 246° West 268 308 9,000  Level FlightAware ADS-B
Sat 05:51:37 AM 51.2508 -0.3783 257° West 269 310 9,000  Level FlightAware ADS-B
Sat 05:51:44 AM 51.2490 -0.3911 264° West 272 313 9,000  Level FlightAware ADS-B
Sat 05:51:48 AM 51.2485 -0.3991 273° West 274 315 9,000  Level FlightAware ADS-B
Sat 05:51:51 AM 51.2488 -0.4071 281° West 275 316 9,000  Level FlightAware ADS-B
Sat 05:51:55 AM 51.2496 -0.4138 288° West 277 319 9,000  Level FlightAware ADS-B
Sat 05:52:00 AM 51.2518 -0.4245 295° West 278 320 9,000  Level FlightAware ADS-B
Sat 05:52:04 AM 51.2536 -0.4305 304° West 280 322 9,000  Level FlightAware ADS-B
Sat 05:52:07 AM 51.2560 -0.4363 310° West 279 321 9,000  Level FlightAware ADS-B
Sat 05:52:13 AM 51.2606 -0.4449 320° Northwest 277 319 9,000  Level FlightAware ADS-B
Sat 05:52:19 AM 51.2665 -0.4529 326° Northwest 275 316 9,000  Level FlightAware ADS-B
Sat 05:52:33 AM 51.2815 -0.4693 327° Northwest 274 315 9,000  Level FlightAware ADS-B
Sat 05:52:48 AM 51.2975 -0.4858 329° Northwest 269 310 9,000  Level FlightAware ADS-B
Sat 05:53:04 AM 51.3141 -0.5020 329° Northwest 267 307 9,000  Level FlightAware ADS-B
Sat 05:53:18 AM 51.3290 -0.5164 331° Northwest 268 308 9,000  Level FlightAware ADS-B
Sat 05:53:22 AM 51.3339 -0.5207 337° Northwest 268 308 9,000  Level FlightAware ADS-B
Sat 05:53:27 AM 51.3386 -0.5240 345° North 265 305 9,000  Level FlightAware ADS-B
Sat 05:53:31 AM 51.3436 -0.5262 354° North 263 303 9,000  Level FlightAware ADS-B
Sat 05:53:35 AM 51.3480 -0.5270 North 260 299 9,000  Level FlightAware ADS-B
Sat 05:53:38 AM 51.3524 -0.5268 North 256 295 9,000  Level FlightAware ADS-B
Sat 05:53:43 AM 51.3577 -0.5256 14° North 253 291 9,000  Level FlightAware ADS-B
Sat 05:53:46 AM 51.3610 -0.5242 23° Northeast 252 290 9,000  Level FlightAware ADS-B
Sat 05:53:51 AM 51.3671 -0.5202 30° Northeast 249 287 9,000  Level FlightAware ADS-B
Sat 05:53:55 AM 51.3709 -0.5167 36° Northeast 248 285 9,000  Level FlightAware ADS-B
Sat 05:53:59 AM 51.3744 -0.5126 45° Northeast 246 283 9,000  Level FlightAware ADS-B
Sat 05:54:02 AM 51.3770 -0.5083 49° Northeast 244 281 9,000  Level FlightAware ADS-B
Sat 05:54:05 AM 51.3792 -0.5042 54° Northeast 243 280 9,000  Level FlightAware ADS-B
Sat 05:54:09 AM 51.3815 -0.4991 61° Northeast 241 277 9,000  Level FlightAware ADS-B
Sat 05:54:12 AM 51.3831 -0.4944 69° East 239 275 9,000  Level FlightAware ADS-B
Sat 05:54:17 AM 51.3850 -0.4863 77° East 237 273 9,000  Level FlightAware ADS-B
Sat 05:54:21 AM 51.3860 -0.4795 83° East 235 270 9,000  Level FlightAware ADS-B
Sat 05:54:25 AM 51.3865 -0.4731 90° East 235 270 9,000  Level FlightAware ADS-B
Sat 05:54:28 AM 51.3865 -0.4676 94° East 234 269 9,000  Level FlightAware ADS-B
Sat 05:54:31 AM 51.3863 -0.4625 104° East 233 268 9,000  Level FlightAware ADS-B
Sat 05:54:35 AM 51.3852 -0.4554 108° East 234 269 9,000  Level FlightAware ADS-B
Sat 05:54:39 AM 51.3840 -0.4496 120° Southeast 234 269 9,000  Level FlightAware ADS-B
Sat 05:54:46 AM 51.3799 -0.4380 128° Southeast 234 269 9,000  Level FlightAware ADS-B
Sat 05:54:50 AM 51.3776 -0.4334 137° Southeast 235 270 9,000  Level FlightAware ADS-B
Sat 05:54:54 AM 51.3741 -0.4281 142° Southeast 235 270 9,000  Level FlightAware ADS-B
Sat 05:54:57 AM 51.3714 -0.4247 148° Southeast 236 272 9,000  Level FlightAware ADS-B
Sat 05:55:08 AM 51.3617 -0.4148 145° Southeast 236 272 9,000  Level FlightAware ADS-B
Sat 05:55:25 AM 51.3469 -0.3979 147° Southeast 236 272 9,000 -500 Level FlightAware ADS-B
Sat 05:55:44 AM 51.3295 -0.3797 148° Southeast 236 272 8,700 -947 Descending FlightAware ADS-B
Sat 05:56:03 AM 51.3115 -0.3620 168° South 234 269 8,400 -1,050 Descending FlightAware ADS-B
Sat 05:56:24 AM 51.2894 -0.3547 192° South 244 281 8,000 -960 Descending FlightAware ADS-B
Sat 05:56:28 AM 51.2853 -0.3561 196° South 246 283 8,000  Level FlightAware ADS-B
Sat 05:56:31 AM 51.2811 -0.3580 203° Southwest 248 285 8,000  Level FlightAware ADS-B
Sat 05:56:37 AM 51.2752 -0.3620 211° Southwest 252 290 8,000  Level FlightAware ADS-B
Sat 05:56:40 AM 51.2720 -0.3650 221° Southwest 254 292 8,000  Level FlightAware ADS-B
Sat 05:56:49 AM 51.2641 -0.3759 234° Southwest 260 299 8,000  Level FlightAware ADS-B
Sat 05:56:54 AM 51.2608 -0.3831 241° Southwest 263 303 8,000  Level FlightAware ADS-B
Sat 05:56:57 AM 51.2586 -0.3895 248° West 265 305 8,000  Level FlightAware ADS-B
Sat 05:57:02 AM 51.2566 -0.3976 260° West 268 308 8,000  Level FlightAware ADS-B
Sat 05:57:09 AM 51.2551 -0.4110 271° West 270 311 8,000  Level FlightAware ADS-B
Sat 05:57:12 AM 51.2552 -0.4179 278° West 271 312 8,000  Level FlightAware ADS-B
Sat 05:57:18 AM 51.2562 -0.4287 288° West 271 312 8,000  Level FlightAware ADS-B
Sat 05:57:22 AM 51.2578 -0.4364 298° West 271 312 8,000  Level FlightAware ADS-B
Sat 05:57:27 AM 51.2611 -0.4465 312° West 269 310 8,000  Level FlightAware ADS-B
Sat 05:57:37 AM 51.2691 -0.4605 323° Northwest 265 305 8,000  Level FlightAware ADS-B
Sat 05:57:41 AM 51.2732 -0.4654 327° Northwest 263 303 8,000  Level FlightAware ADS-B
Sat 05:57:57 AM 51.2889 -0.4818 327° Northwest 262 302 8,000  Level FlightAware ADS-B
Sat 05:58:12 AM 51.3046 -0.4982 328° Northwest 261 300 8,000  Level FlightAware ADS-B
Sat 05:58:28 AM 51.3204 -0.5140 328° Northwest 259 298 8,000  Level FlightAware ADS-B
Sat 05:58:40 AM 51.3332 -0.5266 330° Northwest 259 298 8,000  Level FlightAware ADS-B
Sat 05:58:45 AM 51.3378 -0.5308 338° Northwest 257 296 8,000  Level FlightAware ADS-B
Sat 05:58:50 AM 51.3433 -0.5343 347° North 255 293 8,000  Level FlightAware ADS-B
Sat 05:58:54 AM 51.3479 -0.5360 357° North 250 288 8,000  Level FlightAware ADS-B
Sat 05:58:59 AM 51.3533 -0.5365 North 246 283 8,000  Level FlightAware ADS-B
Sat 05:59:04 AM 51.3588 -0.5357 11° North 243 280 8,000  Level FlightAware ADS-B
Sat 05:59:07 AM 51.3625 -0.5345 17° North 241 277 8,000  Level FlightAware ADS-B
Sat 05:59:10 AM 51.3658 -0.5329 22° Northeast 240 276 8,000  Level FlightAware ADS-B
Sat 05:59:14 AM 51.3695 -0.5305 29° Northeast 238 274 8,000  Level FlightAware ADS-B
Sat 05:59:18 AM 51.3734 -0.5270 37° Northeast 237 273 8,000  Level FlightAware ADS-B
Sat 05:59:24 AM 51.3784 -0.5209 47° Northeast 234 269 8,000 -545 Level FlightAware ADS-B
Sat 05:59:29 AM 51.3824 -0.5140 62° Northeast 232 267 7,900 -857 Descending FlightAware ADS-B
Sat 05:59:38 AM 51.3869 -0.5005 76° East 229 264 7,800 -500 Descending FlightAware ADS-B
Sat 05:59:41 AM 51.3877 -0.4956 84° East 228 262 7,800 -857 Level FlightAware ADS-B
Sat 05:59:45 AM 51.3882 -0.4884 98° East 227 261 7,700 -1,000 Descending FlightAware ADS-B
Sat 05:59:53 AM 51.3871 -0.4755 111° Southeast 227 261 7,600 -1,000 Descending FlightAware ADS-B
Sat 05:59:57 AM 51.3855 -0.4687 124° Southeast 228 262 7,500 -923 Descending FlightAware ADS-B
Sat 06:00:06 AM 51.3802 -0.4560 138° Southeast 232 267 7,400 -923 Descending FlightAware ADS-B
Sat 06:00:10 AM 51.3777 -0.4524 146° Southeast 234 269 7,300 -1,333 Descending FlightAware ADS-B
Sat 06:00:15 AM 51.3731 -0.4475 156° South 237 273 7,200 -667 Descending FlightAware ADS-B
Sat 06:00:19 AM 51.3691 -0.4446 162° South 240 276 7,200 -857 Level FlightAware ADS-B
Sat 06:00:22 AM 51.3659 -0.4430 170° South 243 280 7,100 -1,000 Descending FlightAware ADS-B
Sat 06:00:25 AM 51.3617 -0.4418 178° South 246 283 7,100 -857 Level FlightAware ADS-B
Sat 06:00:29 AM 51.3575 -0.4415 188° South 250 288 7,000 -500 Descending FlightAware ADS-B
Sat 06:00:37 AM 51.3489 -0.4435 200° South 256 295 7,000  Level FlightAware ADS-B
Sat 06:00:41 AM 51.3433 -0.4469 209° Southwest 260 299 7,000  Level FlightAware ADS-B
Sat 06:00:45 AM 51.3392 -0.4505 215° Southwest 263 303 7,000  Level FlightAware ADS-B
Sat 06:00:49 AM 51.3358 -0.4543 228° Southwest 265 305 7,000  Level FlightAware ADS-B
Sat 06:00:58 AM 51.3281 -0.4679 239° Southwest 270 311 7,000  Level FlightAware ADS-B
Sat 06:01:01 AM 51.3260 -0.4736 248° West 270 311 7,000  Level FlightAware ADS-B
Sat 06:01:08 AM 51.3231 -0.4852 258° West 270 311 7,000  Level FlightAware ADS-B
Sat 06:01:13 AM 51.3217 -0.4953 269° West 271 312 7,000  Level FlightAware ADS-B
Sat 06:01:20 AM 51.3216 -0.5085 280° West 268 308 7,000  Level FlightAware ADS-B
Sat 06:01:25 AM 51.3227 -0.5190 290° West 266 306 7,000  Level FlightAware ADS-B
Sat 06:01:29 AM 51.3245 -0.5268 297° West 264 304 7,000  Level FlightAware ADS-B
Sat 06:01:38 AM 51.3294 -0.5425 294° West 262 302 7,000  Level FlightAware ADS-B
Sat 06:01:42 AM 51.3311 -0.5486 290° West 263 303 7,000  Level FlightAware ADS-B
Sat 06:01:46 AM 51.3327 -0.5557 290° West 265 305 7,000  Level FlightAware ADS-B
Sat 06:02:01 AM 51.3392 -0.5845 290° West 266 306 7,000  Level FlightAware ADS-B
Sat 06:02:12 AM 51.3435 -0.6037 287° West 265 305 7,000  Level FlightAware ADS-B
Sat 06:02:18 AM 51.3457 -0.6156 281° West 266 306 7,000  Level FlightAware ADS-B
Sat 06:02:34 AM 51.3494 -0.6458 282° West 266 306 7,000  Level FlightAware ADS-B
Sat 06:02:49 AM 51.3531 -0.6748 281° West 265 305 7,000  Level FlightAware ADS-B
Sat 06:03:04 AM 51.3565 -0.7039 280° West 266 306 7,000 -200 Level FlightAware ADS-B
Sat 06:03:19 AM 51.3597 -0.7322 280° West 267 307 6,900 -581 Descending FlightAware ADS-B
Sat 06:03:35 AM 51.3632 -0.7629 280° West 265 305 6,700 -750 Descending FlightAware ADS-B
Sat 06:03:51 AM 51.3666 -0.7936 279° West 263 303 6,500 -774 Descending FlightAware ADS-B
Sat 06:04:06 AM 51.3696 -0.8232 279° West 260 299 6,300 -800 Descending FlightAware ADS-B
Sat 06:04:21 AM 51.3724 -0.8520 279° West 258 297 6,100 -783 Descending FlightAware ADS-B
Sat 06:04:29 AM 51.3738 -0.8661 282° West 257 296 6,000 -923 Descending FlightAware ADS-B
Sat 06:04:34 AM 51.3750 -0.8753 287° West 254 292 5,900 -1,200 Descending FlightAware ADS-B
Sat 06:04:39 AM 51.3768 -0.8846 293° West 252 290 5,800 -857 Descending FlightAware ADS-B
Sat 06:04:55 AM 51.3838 -0.9108 294° West 249 287 5,600 -968 Descending FlightAware ADS-B
Sat 06:05:10 AM 51.3911 -0.9374 291° West 249 287 5,300 -947 Descending FlightAware ADS-B
Sat 06:05:14 AM 51.3924 -0.9428 298° West 249 287 5,300 -667 Level FlightAware ADS-B
Sat 06:05:19 AM 51.3955 -0.9520 308° West 246 283 5,200 -1,333 Descending FlightAware ADS-B
Sat 06:05:23 AM 51.3979 -0.9570 318° Northwest 243 280 5,100 -1,333 Descending FlightAware ADS-B
Sat 06:05:28 AM 51.4026 -0.9638 328° Northwest 238 274 5,000 -1,200 Descending FlightAware ADS-B
Sat 06:05:33 AM 51.4066 -0.9678 335° Northwest 234 269 4,900 -750 Descending FlightAware ADS-B
Sat 06:05:36 AM 51.4099 -0.9703 344° North 229 264 4,900 -857 Level FlightAware ADS-B
Sat 06:05:40 AM 51.4136 -0.9720 348° North 225 259 4,800 -750 Descending FlightAware ADS-B
Sat 06:05:44 AM 51.4181 -0.9735 354° North 220 253 4,800 -286 Level FlightAware ADS-B
Sat 06:06:01 AM 51.4345 -0.9764 353° North 208 239 4,700 -727 Descending FlightAware ADS-B
Sat 06:06:17 AM 51.4491 -0.9794 353° North 203 234 4,400 -1,071 Descending FlightAware ADS-B
Sat 06:06:29 AM 51.4607 -0.9818 359° North 195 224 4,200 -1,059 Descending FlightAware ADS-B
Sat 06:06:34 AM 51.4649 -0.9819 North 190 219 4,100 -1,091 Descending FlightAware ADS-B
Sat 06:06:40 AM 51.4696 -0.9806 21° North 183 211 4,000 -667 Descending FlightAware ADS-B
Sat 06:06:43 AM 51.4721 -0.9791 31° Northeast 180 207 4,000 -1,000 Level FlightAware ADS-B
Sat 06:06:46 AM 51.4743 -0.9770 38° Northeast 178 205 3,900 -857 Descending FlightAware ADS-B
Sat 06:06:50 AM 51.4767 -0.9739 51° Northeast 174 200 3,900 -750 Level FlightAware ADS-B
Sat 06:06:54 AM 51.4787 -0.9700 57° Northeast 173 199 3,800 -1,714 Descending FlightAware ADS-B
Sat 06:06:57 AM 51.4802 -0.9662 62° Northeast 172 198 3,700 -750 Descending FlightAware ADS-B
Sat 06:07:02 AM 51.4818 -0.9615 64° Northeast 171 197 3,700 -900 Level FlightAware ADS-B
Sat 06:07:17 AM 51.4871 -0.9441 63° Northeast 169 194 3,400 -1,000 Descending FlightAware ADS-B
Sat 06:07:32 AM 51.4927 -0.9266 63° Northeast 169 194 3,200 -923 Descending FlightAware ADS-B
Sat 06:07:43 AM 51.4964 -0.9151 67° East 169 194 3,000 -1,286 Descending FlightAware ADS-B
Sat 06:07:46 AM 51.4974 -0.9113 70° East 168 193 2,900 -857 Descending FlightAware ADS-B
Sat 06:07:50 AM 51.4985 -0.9064 81° East 168 193 2,900  Level FlightAware ADS-B
Sat 06:07:55 AM 51.4991 -0.9000 85° East 168 193 2,900  Level FlightAware ADS-B
Sat 06:07:59 AM 51.4993 -0.8964 89° East 169 194 2,900  Level FlightAware ADS-B
Sat 06:08:08 AM 51.4994 -0.8845 90° East 165 190 2,900  Level FlightAware ADS-B
Sat 06:08:20 AM 51.4994 -0.8702 88° East 154 177 2,900  Level FlightAware ADS-B
Sat 06:08:30 AM 51.4996 -0.8598 88° East 149 171 2,900  Level FlightAware ADS-B
Sat 06:08:45 AM 51.4999 -0.8428 88° East 149 171 2,900  Level FlightAware ADS-B
Sat 06:09:01 AM 51.5003 -0.8253 89° East 150 173 2,900  Level FlightAware ADS-B
Sat 06:09:17 AM 51.5005 -0.8067 89° East 150 173 2,900 -250 Level FlightAware ADS-B
Sat 06:09:25 AM 51.5006 -0.7983 89° East 152 175 2,800 -783 Descending FlightAware ADS-B
Sat 06:09:40 AM 51.5008 -0.7822 88° East 151 174 2,600 -774 Descending FlightAware ADS-B
Sat 06:09:56 AM 51.5012 -0.7640 89° East 151 174 2,400 -774 Descending FlightAware ADS-B
Sat 06:10:11 AM 51.5013 -0.7467 88° East 151 174 2,200 -800 Descending FlightAware ADS-B
Sat 06:10:26 AM 51.5017 -0.7299 89° East 151 174 2,000 -800 Descending FlightAware ADS-B
Sat 06:10:41 AM 51.5019 -0.7130 88° East 152 175 1,800 -774 Descending FlightAware ADS-B
Sat 06:10:57 AM 51.5022 -0.6951 89° East 150 173 1,600 -774 Descending FlightAware ADS-B
Sat 06:11:12 AM 51.5023 -0.6789 88° East 153 176 1,400 -833 Descending FlightAware ADS-B
Sat 06:11:33 AM 51.5027 -0.6557 89° East 150 173 1,100 -894 Descending FlightAware ADS-B
Sat 06:11:59 AM 51.5031 -0.6275 89° East 144 166 700 -923 Descending FlightAware ADS-B

Login

Don't have an account? Register now (free) for customized features, flight alerts, and more!